Time;durP1;ratioP1;P1;durP2;ratioP2;P2;SDS_P1;SDS_P2;PMS_P1;PMS_P2;Temp;Humidity;BMP_temperature;BMP_pressure;BME280_temperature;BME280_humidity;BME280_pressure;Samples;Min_cycle;Max_cycle;Signal;HPM_P1;HPM_P2
2023/02/18 00:01:19;;;;;;;24.65;18.95;;;;;;;8.42;100.00;102540.34;2098387;28;20036;-75
2023/02/18 00:02:42;;;;;;;19.77;14.45;;;;;;;8.43;100.00;102536.91;2102869;28;20051;-74
2023/02/18 00:04:05;;;;;;;20.58;14.30;;;;;;;8.43;100.00;102540.44;2093583;28;20068;-74
2023/02/18 00:05:29;;;;;;;20.55;14.98;;;;;;;8.44;100.00;102536.97;2091621;28;20048;-74
2023/02/18 00:06:52;;;;;;;28.70;23.27;;;;;;;8.43;100.00;102532.53;2092098;28;20045;-74
2023/02/18 00:08:14;;;;;;;20.60;15.77;;;;;;;8.46;100.00;102537.06;2100068;28;20043;-74
2023/02/18 00:09:38;;;;;;;16.63;11.45;;;;;;;8.48;100.00;102538.94;2093879;28;20370;-76
2023/02/18 00:11:00;;;;;;;15.63;9.93;;;;;;;8.49;100.00;102543.38;2093715;28;20048;-75
2023/02/18 00:12:22;;;;;;;16.73;10.38;;;;;;;8.50;100.00;102537.31;2108673;28;20039;-76
2023/02/18 00:13:49;;;;;;;19.20;11.02;;;;;;;8.53;100.00;102528.69;2097460;28;20052;-75
2023/02/18 00:15:12;;;;;;;15.43;10.05;;;;;;;8.54;100.00;102540.97;2102437;28;20071;-75
2023/02/18 00:16:33;;;;;;;18.55;10.07;;;;;;;8.57;100.00;102534.16;2086235;28;20053;-76
2023/02/18 00:17:55;;;;;;;13.45;9.30;;;;;;;8.61;100.00;102532.59;2082677;28;20057;-76
2023/02/18 00:19:20;;;;;;;13.00;8.90;;;;;;;8.65;100.00;102532.84;2091323;28;20045;-76
2023/02/18 00:20:41;;;;;;;17.55;11.02;;;;;;;8.68;100.00;102529.44;2094668;28;20531;-75
2023/02/18 00:22:03;;;;;;;17.00;10.57;;;;;;;8.70;100.00;102528.72;2094022;28;20056;-76
2023/02/18 00:23:27;;;;;;;15.63;10.73;;;;;;;8.73;100.00;102525.31;2085986;28;20519;-76
2023/02/18 00:24:53;;;;;;;15.52;9.88;;;;;;;8.74;100.00;102533.31;2094427;28;20055;-76
2023/02/18 00:26:17;;;;;;;17.30;10.80;;;;;;;8.77;100.00;102527.31;2098820;28;20059;-76
2023/02/18 00:27:40;;;;;;;14.52;9.73;;;;;;;8.72;100.00;102532.34;2092558;28;20050;-76
2023/02/18 00:29:02;;;;;;;13.70;9.48;;;;;;;8.60;100.00;102526.41;2099838;28;20036;-76
2023/02/18 00:30:24;;;;;;;15.10;9.73;;;;;;;8.52;100.00;102525.13;2101690;28;20147;-76
2023/02/18 00:31:47;;;;;;;13.10;9.13;;;;;;;8.46;100.00;102524.81;2092568;28;20036;-75
2023/02/18 00:33:08;;;;;;;12.82;8.18;;;;;;;8.43;100.00;102526.38;2089634;28;20082;-76
2023/02/18 00:34:30;;;;;;;17.00;8.93;;;;;;;8.40;100.00;102527.13;2097607;28;20106;-76
2023/02/18 00:35:52;;;;;;;12.52;7.70;;;;;;;8.39;100.00;102530.59;2101734;28;20112;-76
2023/02/18 00:37:14;;;;;;;21.42;12.90;;;;;;;8.42;100.00;102525.47;2101375;28;20060;-76
2023/02/18 00:38:37;;;;;;;15.73;10.15;;;;;;;8.46;100.00;102522.19;2091667;28;20066;-76
2023/02/18 00:39:59;;;;;;;15.50;11.00;;;;;;;8.50;100.00;102528.50;2098903;28;20597;-77
2023/02/18 00:41:22;;;;;;;16.70;10.45;;;;;;;8.54;100.00;102527.81;2096218;28;20071;-75
2023/02/18 00:42:44;;;;;;;16.52;10.35;;;;;;;8.57;100.00;102528.00;2077363;28;20072;-76
2023/02/18 00:44:07;;;;;;;15.88;11.07;;;;;;;8.59;100.00;102526.38;2095370;28;20052;-76
2023/02/18 00:45:28;;;;;;;16.25;10.30;;;;;;;8.59;100.00;102527.28;2101206;28;20519;-75
2023/02/18 00:46:52;;;;;;;25.13;14.73;;;;;;;8.60;100.00;102526.41;2093638;28;20052;-75
2023/02/18 00:48:13;;;;;;;128.70;64.13;;;;;;;8.58;100.00;102528.09;2091563;28;20041;-75
2023/02/18 00:49:37;;;;;;;64.82;33.80;;;;;;;8.57;100.00;102526.28;2089948;28;20141;-75
2023/02/18 00:50:59;;;;;;;30.13;17.25;;;;;;;8.57;100.00;102521.00;2090860;28;20044;-75
2023/02/18 00:52:22;;;;;;;20.50;12.93;;;;;;;8.60;100.00;102520.28;2098148;28;20043;-76
2023/02/18 00:53:44;;;;;;;15.40;9.60;;;;;;;8.59;100.00;102522.00;2100502;28;20094;-76
2023/02/18 00:55:07;;;;;;;21.48;11.85;;;;;;;8.60;100.00;102521.16;2096622;28;20568;-76
2023/02/18 00:56:30;;;;;;;18.23;11.60;;;;;;;8.60;100.00;102520.28;2087873;28;20040;-76
2023/02/18 00:57:51;;;;;;;14.25;9.98;;;;;;;8.61;100.00;102522.97;2085385;28;20065;-75
2023/02/18 00:59:14;;;;;;;17.95;10.10;;;;;;;8.61;100.00;102512.44;2091168;28;20058;-75
2023/02/18 01:00:36;;;;;;;25.67;18.40;;;;;;;8.62;100.00;102518.59;2099431;28;20052;-75
2023/02/18 01:01:58;;;;;;;30.50;25.00;;;;;;;8.61;100.00;102515.06;2098667;28;20119;-75
2023/02/18 01:03:22;;;;;;;20.02;13.95;;;;;;;8.59;100.00;102513.19;2093922;28;20071;-75
2023/02/18 01:04:44;;;;;;;15.10;10.23;;;;;;;8.58;100.00;102512.28;2087479;28;20068;-74
2023/02/18 01:06:07;;;;;;;14.98;10.38;;;;;;;8.58;100.00;102514.94;2099396;28;20089;-75
2023/02/18 01:07:30;;;;;;;20.17;15.02;;;;;;;8.57;100.00;102515.75;2093478;28;20052;-75
2023/02/18 01:08:54;;;;;;;21.17;16.25;;;;;;;8.58;100.00;102516.66;2101340;28;20044;-76
2023/02/18 01:10:16;;;;;;;19.08;13.93;;;;;;;8.53;100.00;102510.25;2100886;28;20063;-75
2023/02/18 01:11:39;;;;;;;19.25;14.93;;;;;;;8.50;100.00;102507.44;2099471;28;20916;-74
2023/02/18 01:13:03;;;;;;;18.60;13.20;;;;;;;8.48;100.00;102503.81;2096563;28;20055;-76
2023/02/18 01:14:25;;;;;;;22.05;17.70;;;;;;;8.45;100.00;102499.31;2100036;28;20044;-76
2023/02/18 01:15:46;;;;;;;17.63;12.43;;;;;;;8.42;100.00;102499.16;2102024;28;20496;-75
2023/02/18 01:17:09;;;;;;;23.75;16.88;;;;;;;8.41;100.00;102502.59;2085564;28;20107;-75
2023/02/18 01:18:31;;;;;;;24.55;15.15;;;;;;;8.42;100.00;102506.13;2088704;28;20055;-76
2023/02/18 01:19:54;;;;;;;17.13;12.40;;;;;;;8.42;100.00;102498.25;2098585;28;20072;-75
2023/02/18 01:21:17;;;;;;;20.17;14.73;;;;;;;8.40;100.00;102488.53;2093841;28;20553;-75
2023/02/18 01:22:38;;;;;;;16.23;11.18;;;;;;;8.39;100.00;102499.00;2093522;28;20132;-75
2023/02/18 01:24:05;;;;;;;15.93;10.38;;;;;;;8.40;100.00;102487.66;2091505;28;20119;-75
2023/02/18 01:25:26;;;;;;;17.13;12.75;;;;;;;8.39;100.00;102488.47;2099565;28;20437;-75
2023/02/18 01:26:48;;;;;;;17.08;11.25;;;;;;;8.38;100.00;102491.94;2091987;28;20139;-75
2023/02/18 01:28:12;;;;;;;14.77;10.10;;;;;;;8.36;100.00;102496.19;2085571;28;20056;-75
2023/02/18 01:29:34;;;;;;;16.95;11.77;;;;;;;8.33;100.00;102494.31;2082592;28;20493;-75
2023/02/18 01:30:56;;;;;;;15.52;10.18;;;;;;;8.31;100.00;102490.72;2097277;28;20093;-75
2023/02/18 01:32:20;;;;;;;10.63;7.10;;;;;;;8.28;100.00;102495.75;2091261;28;20066;-75
2023/02/18 01:33:44;;;;;;;13.55;9.00;;;;;;;8.29;100.00;102488.78;2090617;28;20052;-75
2023/02/18 01:35:06;;;;;;;14.73;9.10;;;;;;;8.29;100.00;102496.66;2099406;28;20505;-75
2023/02/18 01:36:29;;;;;;;16.23;10.23;;;;;;;8.33;100.00;102496.06;2103716;28;20075;-75
2023/02/18 01:37:51;;;;;;;15.85;10.07;;;;;;;8.35;100.00;102495.28;2093300;28;20452;-75
2023/02/18 01:39:15;;;;;;;15.43;10.45;;;;;;;8.38;100.00;102491.94;2087033;28;20144;-75
2023/02/18 01:40:45;;;;;;;14.45;10.27;;;;;;;8.41;100.00;102497.34;2094327;28;20511;-74
2023/02/18 01:42:16;;;;;;;22.30;18.05;;;;;;;8.39;100.00;102496.38;2099803;28;20110;-75
2023/02/18 01:43:39;;;;;;;39.92;35.80;;;;;;;8.27;100.00;102496.56;2104586;28;20575;-75
2023/02/18 01:45:43;;;;;;;30.75;27.45;;;;;;;8.19;100.00;102492.66;2099016;28;20044;-75
2023/02/18 01:47:05;;;;;;;26.27;21.83;;;;;;;8.14;100.00;102488.84;2060004;28;20046;-76
2023/02/18 01:48:31;;;;;;;18.92;14.57;;;;;;;8.17;100.00;102489.03;2097803;28;20385;-75
2023/02/18 01:49:53;;;;;;;14.13;10.20;;;;;;;8.19;100.00;102489.13;2097479;28;20492;-75
2023/02/18 01:51:19;;;;;;;12.20;8.73;;;;;;;8.23;100.00;102486.72;2092623;28;20109;-75
2023/02/18 01:52:41;;;;;;;13.95;9.05;;;;;;;8.27;100.00;102487.81;2091342;28;20040;-77
2023/02/18 01:54:08;;;;;;;13.27;8.88;;;;;;;8.32;100.00;102482.00;2099950;28;20585;-75
2023/02/18 01:55:31;;;;;;;39.28;27.50;;;;;;;8.39;100.00;102488.47;2094683;28;20049;-76
2023/02/18 01:56:58;;;;;;;41.45;27.73;;;;;;;8.42;100.00;102485.09;2086674;28;20048;-76
2023/02/18 01:58:19;;;;;;;27.55;20.05;;;;;;;8.40;100.00;102487.66;2086244;28;20374;-76
2023/02/18 01:59:46;;;;;;;23.88;18.13;;;;;;;8.39;100.00;102488.47;2096001;28;20052;-75
2023/02/18 02:01:09;;;;;;;20.48;13.25;;;;;;;8.34;100.00;102480.31;2103718;28;20076;-75
2023/02/18 02:02:35;;;;;;;19.15;13.02;;;;;;;8.32;100.00;102482.00;2101855;28;20048;-76
2023/02/18 02:03:56;;;;;;;15.50;11.63;;;;;;;8.29;100.00;102480.88;2103947;28;20427;-76
2023/02/18 02:05:20;;;;;;;16.75;12.02;;;;;;;8.27;100.00;102469.38;2091889;28;20121;-76
2023/02/18 02:06:43;;;;;;;19.08;11.38;;;;;;;8.24;100.00;102469.22;2092872;28;20049;-76
2023/02/18 02:08:05;;;;;;;16.15;10.90;;;;;;;8.23;100.00;102475.28;2092686;28;20048;-75
2023/02/18 02:09:30;;;;;;;19.45;14.02;;;;;;;8.22;100.00;102468.22;2094384;28;20048;-75
2023/02/18 02:11:12;;;;;;;18.67;12.75;;;;;;;8.19;100.00;102473.34;2096664;28;20044;-76
2023/02/18 02:12:49;;;;;;;19.58;13.77;;;;;;;8.13;100.00;102473.94;2105181;28;20481;-76
2023/02/18 02:14:24;;;;;;;23.45;15.52;;;;;;;8.11;100.00;102470.31;2095827;28;20048;-76
2023/02/18 02:15:54;;;;;;;16.27;11.18;;;;;;;8.07;100.00;102476.22;2087402;28;20644;-75
2023/02/18 02:17:29;;;;;;;12.20;8.82;;;;;;;8.05;100.00;102463.81;2099583;28;20044;-75
2023/02/18 02:19:05;;;;;;;15.70;9.60;;;;;;;8.01;100.00;102471.53;2104421;28;20136;-75
2023/02/18 02:21:09;;;;;;;11.80;7.57;;;;;;;7.95;100.00;102468.56;2097025;28;20044;-76
2023/02/18 02:23:03;;;;;;;12.80;7.25;;;;;;;7.91;100.00;102473.59;2085467;28;20056;-76
2023/02/18 02:25:02;;;;;;;11.43;7.10;;;;;;;7.88;100.00;102476.03;2089533;28;20049;-75
2023/02/18 02:26:54;;;;;;;15.85;10.05;;;;;;;7.84;100.00;102467.09;2089140;28;20619;-74
2023/02/18 02:28:52;;;;;;;16.90;10.38;;;;;;;7.82;100.00;102471.34;2093492;28;20041;-75
2023/02/18 02:30:59;;;;;;;18.08;11.82;;;;;;;7.80;100.00;102475.66;2096855;28;20037;-75
2023/02/18 02:33:14;;;;;;;19.42;12.13;;;;;;;7.83;100.00;102474.91;2090310;28;20112;-74
2023/02/18 02:34:55;;;;;;;21.20;13.10;;;;;;;7.84;100.00;102479.34;2102563;28;20036;-75
2023/02/18 02:36:24;;;;;;;16.70;11.38;;;;;;;7.85;100.00;102479.44;2080915;28;20045;-75
2023/02/18 02:37:54;;;;;;;18.77;12.18;;;;;;;7.87;100.00;102479.53;2090290;28;20055;-75
2023/02/18 02:39:23;;;;;;;21.35;13.50;;;;;;;7.89;100.00;102477.84;2094413;28;20048;-75
2023/02/18 02:40:52;;;;;;;21.75;13.80;;;;;;;7.90;100.00;102477.94;2096109;28;20048;-74
2023/02/18 02:42:22;;;;;;;23.35;13.55;;;;;;;7.92;100.00;102480.66;2090622;28;20074;-74
2023/02/18 02:43:57;;;;;;;25.25;15.77;;;;;;;7.92;100.00;102476.31;2093401;28;20056;-74
2023/02/18 02:45:28;;;;;;;38.53;21.90;;;;;;;7.91;100.00;102478.84;2089392;28;20045;-74
2023/02/18 02:46:54;;;;;;;27.95;17.42;;;;;;;7.92;100.00;102486.81;2085963;28;20095;-74
2023/02/18 02:48:24;;;;;;;25.33;17.23;;;;;;;7.91;100.00;102485.00;2093094;28;20048;-74
2023/02/18 02:49:54;;;;;;;31.58;23.52;;;;;;;7.91;100.00;102479.75;2094434;28;20041;-74
2023/02/18 02:51:25;;;;;;;20.50;16.02;;;;;;;7.92;100.00;102481.56;2086715;28;20053;-74
2023/02/18 02:52:53;;;;;;;20.77;15.60;;;;;;;7.91;100.00;102487.66;2089441;28;20463;-75
2023/02/18 02:54:17;;;;;;;20.30;14.75;;;;;;;7.91;100.00;102492.00;2086703;28;20049;-75
2023/02/18 02:55:40;;;;;;;25.80;19.65;;;;;;;7.89;100.00;102486.66;2083976;28;20053;-74
2023/02/18 02:57:10;;;;;;;21.60;15.68;;;;;;;7.90;100.00;102490.19;2078204;28;20738;-75
2023/02/18 02:58:35;;;;;;;25.67;18.95;;;;;;;7.91;100.00;102486.75;2081991;28;20052;-75
2023/02/18 03:00:02;;;;;;;35.08;22.60;;;;;;;7.91;100.00;102489.38;2085549;28;20044;-75
2023/02/18 03:01:36;;;;;;;24.75;16.75;;;;;;;7.93;100.00;102483.38;2086685;28;20507;-75
2023/02/18 03:03:25;;;;;;;16.65;11.93;;;;;;;7.92;100.00;102492.09;2086723;28;20538;-75
2023/02/18 03:04:59;;;;;;;44.55;33.83;;;;;;;7.90;100.00;102495.44;2064480;28;20057;-75
2023/02/18 03:06:44;;;;;;;27.40;20.98;;;;;;;7.92;100.00;102493.81;2080045;28;20053;-75
2023/02/18 03:08:17;;;;;;;24.95;17.90;;;;;;;7.89;100.00;102494.53;2083286;28;20036;-75
2023/02/18 03:09:54;;;;;;;23.67;17.05;;;;;;;7.87;100.00;102493.56;2079223;28;20176;-76
2023/02/18 03:11:16;;;;;;;22.00;15.73;;;;;;;7.85;100.00;102491.66;2079180;28;20493;-76
2023/02/18 03:12:49;;;;;;;24.48;16.50;;;;;;;7.86;100.00;102489.13;2092303;28;20052;-76
2023/02/18 03:14:21;;;;;;;22.33;16.92;;;;;;;7.84;100.00;102487.22;2080616;28;20109;-75
2023/02/18 03:15:49;;;;;;;20.35;14.95;;;;;;;7.83;100.00;102490.66;2091837;28;20090;-75
2023/02/18 03:17:22;;;;;;;20.75;14.88;;;;;;;7.81;100.00;102490.56;2097269;28;20048;-75
2023/02/18 03:18:50;;;;;;;21.67;14.50;;;;;;;7.79;100.00;102492.25;2095805;28;20475;-75
2023/02/18 03:20:24;;;;;;;20.05;13.75;;;;;;;7.77;100.00;102487.72;2086960;28;20052;-75
2023/02/18 03:21:52;;;;;;;23.05;17.02;;;;;;;7.79;100.00;102484.34;2079266;28;20061;-76
2023/02/18 03:23:19;;;;;;;26.15;19.92;;;;;;;7.82;100.00;102483.59;2068886;28;20040;-76
2023/02/18 03:24:44;;;;;;;23.25;17.40;;;;;;;7.82;100.00;102481.88;2074949;28;20049;-76
2023/02/18 03:26:11;;;;;;;23.13;16.58;;;;;;;7.86;100.00;102485.59;2086031;28;20041;-76
2023/02/18 03:27:39;;;;;;;21.55;16.90;;;;;;;7.87;100.00;102480.44;2078035;28;20140;-75
2023/02/18 03:29:06;;;;;;;15.88;11.32;;;;;;;7.88;100.00;102489.19;2082796;28;20459;-76
2023/02/18 03:30:31;;;;;;;16.52;11.48;;;;;;;7.87;100.00;102485.69;2080304;28;20627;-75
2023/02/18 03:31:58;;;;;;;20.27;15.30;;;;;;;7.88;100.00;102484.84;2084110;28;20051;-74
2023/02/18 03:33:27;;;;;;;24.10;20.05;;;;;;;7.87;100.00;102480.44;2091905;28;20055;-75
2023/02/18 03:34:55;;;;;;;17.35;12.20;;;;;;;7.87;100.00;102483.06;2086299;28;20136;-74
2023/02/18 03:36:19;;;;;;;16.88;11.00;;;;;;;7.88;100.00;102487.47;2078492;28;20045;-76
2023/02/18 03:37:48;;;;;;;16.08;10.90;;;;;;;7.88;100.00;102479.56;2080342;28;20112;-76
2023/02/18 03:39:14;;;;;;;16.63;10.60;;;;;;;7.87;100.00;102484.78;2082705;28;20073;-75
2023/02/18 03:40:37;;;;;;;15.63;9.07;;;;;;;7.86;100.00;102483.88;2091935;28;20154;-75
2023/02/18 03:41:58;;;;;;;15.48;10.20;;;;;;;7.85;100.00;102479.44;2086241;28;20106;-76
2023/02/18 03:43:21;;;;;;;17.38;12.15;;;;;;;7.88;100.00;102486.56;2089250;28;20052;-75
2023/02/18 03:44:42;;;;;;;17.33;12.38;;;;;;;7.88;100.00;102479.56;2096195;28;20064;-76
2023/02/18 03:46:05;;;;;;;21.08;14.05;;;;;;;7.89;100.00;102481.38;2090226;28;20465;-75
2023/02/18 03:47:28;;;;;;;19.23;12.30;;;;;;;7.88;100.00;102484.84;2085219;28;20408;-75
2023/02/18 03:48:49;;;;;;;15.57;10.43;;;;;;;7.85;100.00;102479.44;2091117;28;20036;-76
2023/02/18 03:50:11;;;;;;;17.08;10.80;;;;;;;7.82;100.00;102481.88;2094798;28;20138;-76
2023/02/18 03:51:33;;;;;;;18.98;11.48;;;;;;;7.80;100.00;102483.53;2092037;28;20052;-76
2023/02/18 03:52:57;;;;;;;14.48;10.07;;;;;;;7.81;100.00;102490.56;2083356;28;20133;-76
2023/02/18 03:54:19;;;;;;;12.52;7.68;;;;;;;7.82;100.00;102484.50;2097915;28;20381;-76
2023/02/18 03:55:42;;;;;;;15.32;8.05;;;;;;;7.89;100.00;102489.28;2092819;28;20048;-75
2023/02/18 03:57:03;;;;;;;14.02;8.40;;;;;;;7.95;100.00;102488.69;2094022;28;20072;-76
2023/02/18 03:58:25;;;;;;;13.02;8.90;;;;;;;7.97;100.00;102493.22;2094046;28;20041;-75
2023/02/18 03:59:48;;;;;;;13.30;8.57;;;;;;;7.98;100.00;102483.63;2080234;28;20041;-76
2023/02/18 04:01:09;;;;;;;15.05;10.60;;;;;;;7.96;100.00;102486.16;2094963;28;20491;-75
2023/02/18 04:02:31;;;;;;;15.63;10.35;;;;;;;7.93;100.00;102496.53;2102387;28;20044;-75
2023/02/18 04:03:54;;;;;;;16.60;12.50;;;;;;;7.91;100.00;102487.66;2093087;28;20048;-75
2023/02/18 04:05:16;;;;;;;18.42;11.88;;;;;;;7.87;100.00;102484.78;2094362;28;20505;-75
2023/02/18 04:06:39;;;;;;;16.83;13.05;;;;;;;7.81;100.00;102487.94;2089769;28;20060;-75
2023/02/18 04:08:04;;;;;;;16.25;10.07;;;;;;;7.78;100.00;102484.25;2102450;28;20040;-75
2023/02/18 04:09:26;;;;;;;15.13;9.57;;;;;;;7.74;100.00;102487.56;2096621;28;20083;-75
2023/02/18 04:10:52;;;;;;;14.60;9.70;;;;;;;7.71;100.00;102485.66;2106453;28;20388;-75
2023/02/18 04:12:15;;;;;;;12.50;7.80;;;;;;;7.70;100.00;102486.47;2104031;28;20040;-75
2023/02/18 04:13:37;;;;;;;13.80;8.57;;;;;;;7.72;100.00;102486.56;2102137;28;20040;-76
2023/02/18 04:14:58;;;;;;;15.60;9.88;;;;;;;7.70;100.00;102483.84;2093312;28;20599;-75
2023/02/18 04:16:21;;;;;;;21.60;14.50;;;;;;;7.70;100.00;102478.59;2098315;28;20044;-75
2023/02/18 04:17:42;;;;;;;17.77;11.25;;;;;;;7.74;100.00;102487.56;2099617;28;20042;-75
2023/02/18 04:19:05;;;;;;;20.63;14.63;;;;;;;7.80;100.00;102488.78;2093459;28;20056;-75
2023/02/18 04:20:27;;;;;;;20.02;14.48;;;;;;;7.85;100.00;102492.56;2088477;28;20052;-76
2023/02/18 04:21:49;;;;;;;18.92;12.45;;;;;;;7.90;100.00;102492.81;2091715;28;20041;-74
2023/02/18 04:23:13;;;;;;;18.13;12.43;;;;;;;7.95;100.00;102496.59;2101633;28;20074;-74
2023/02/18 04:24:35;;;;;;;14.75;10.27;;;;;;;7.96;100.00;102487.88;2098300;28;20055;-74
2023/02/18 04:25:57;;;;;;;15.02;10.82;;;;;;;7.99;100.00;102490.69;2093078;28;20047;-74
2023/02/18 04:27:19;;;;;;;11.20;7.78;;;;;;;7.99;100.00;102485.44;2085839;28;20131;-74
2023/02/18 04:28:40;;;;;;;13.80;9.13;;;;;;;7.97;100.00;102482.72;2093145;28;20080;-75
2023/02/18 04:30:03;;;;;;;12.05;7.50;;;;;;;7.96;100.00;102494.03;2093657;28;20071;-75
2023/02/18 04:31:24;;;;;;;15.20;8.90;;;;;;;7.97;100.00;102497.59;2093094;28;20071;-75
2023/02/18 04:32:47;;;;;;;14.48;8.75;;;;;;;7.95;100.00;102494.88;2094491;28;20131;-75
2023/02/18 04:34:08;;;;;;;14.73;8.70;;;;;;;7.94;100.00;102495.69;2094077;28;20090;-75
2023/02/18 04:35:30;;;;;;;14.23;8.77;;;;;;;7.93;100.00;102491.28;2092904;28;20040;-75
2023/02/18 04:36:53;;;;;;;11.68;8.20;;;;;;;7.91;100.00;102498.16;2093831;28;20048;-75
2023/02/18 04:38:17;;;;;;;13.43;7.82;;;;;;;7.88;100.00;102497.97;2091013;28;20045;-74
2023/02/18 04:39:38;;;;;;;12.88;7.97;;;;;;;7.85;100.00;102497.84;2102108;28;20052;-74
2023/02/18 04:41:01;;;;;;;12.27;7.28;;;;;;;7.81;100.00;102493.19;2101130;28;20040;-74
2023/02/18 04:42:22;;;;;;;13.57;7.82;;;;;;;7.79;100.00;102493.97;2101229;28;20149;-74
2023/02/18 04:43:45;;;;;;;12.05;7.95;;;;;;;7.78;100.00;102495.69;2085503;28;20475;-74
2023/02/18 04:45:09;;;;;;;12.63;7.85;;;;;;;7.77;100.00;102495.59;2090190;28;20070;-75
2023/02/18 04:46:31;;;;;;;12.35;7.65;;;;;;;7.77;100.00;102501.75;2091542;28;20071;-75
2023/02/18 04:47:54;;;;;;;12.55;7.75;;;;;;;7.77;100.00;102498.22;2093505;28;20538;-75
2023/02/18 04:49:16;;;;;;;12.25;7.85;;;;;;;7.76;100.00;102492.06;2101724;28;20035;-75
2023/02/18 04:50:37;;;;;;;12.20;7.65;;;;;;;7.74;100.00;102496.34;2101469;28;20048;-74
2023/02/18 04:52:00;;;;;;;11.90;7.57;;;;;;;7.72;100.00;102500.59;2101356;28;20037;-74
2023/02/18 04:53:24;;;;;;;12.93;7.47;;;;;;;7.71;100.00;102495.25;2092740;28;20049;-74
2023/02/18 04:54:45;;;;;;;12.43;7.18;;;;;;;7.68;100.00;102498.59;2094297;28;20653;-75
2023/02/18 04:56:08;;;;;;;12.02;7.15;;;;;;;7.71;100.00;102495.25;2098289;28;20040;-74
2023/02/18 04:57:29;;;;;;;10.70;6.88;;;;;;;7.80;100.00;102496.69;2094937;28;20416;-74
2023/02/18 04:58:52;;;;;;;11.30;7.35;;;;;;;7.88;100.00;102495.34;2099818;28;20066;-74
2023/02/18 05:00:16;;;;;;;10.45;6.03;;;;;;;7.98;100.00;102494.13;2088864;28;20033;-74
2023/02/18 05:01:39;;;;;;;12.38;7.18;;;;;;;8.05;100.00;102487.47;2099077;28;20051;-74
2023/02/18 05:03:01;;;;;;;12.18;7.93;;;;;;;8.07;100.00;102488.47;2101251;28;20481;-73
2023/02/18 05:04:24;;;;;;;15.02;7.50;;;;;;;8.09;100.00;102490.34;2104708;28;20040;-76
2023/02/18 05:05:45;;;;;;;13.30;7.07;;;;;;;8.09;100.00;102485.09;2107515;28;20044;-74
2023/02/18 05:07:07;;;;;;;11.10;6.70;;;;;;;8.10;100.00;102491.25;2101181;28;20056;-74
2023/02/18 05:08:30;;;;;;;12.45;6.95;;;;;;;8.11;100.00;102487.81;2109691;28;20043;-74
2023/02/18 05:09:53;;;;;;;11.00;7.40;;;;;;;8.11;100.00;102493.06;2102877;28;20051;-75
2023/02/18 05:11:14;;;;;;;11.95;8.38;;;;;;;8.13;100.00;102499.31;2088653;28;20068;-75
2023/02/18 05:12:36;;;;;;;11.02;7.55;;;;;;;8.13;100.00;102499.31;2090633;28;20048;-75
2023/02/18 05:13:58;;;;;;;18.02;9.02;;;;;;;8.15;100.00;102497.66;2108427;28;20054;-76
2023/02/18 05:15:20;;;;;;;15.57;9.68;;;;;;;8.16;100.00;102494.19;2102268;28;20082;-74
2023/02/18 05:16:41;;;;;;;31.27;19.15;;;;;;;8.17;100.00;102504.81;2102071;28;20864;-75
2023/02/18 05:18:04;;;;;;;15.32;11.35;;;;;;;8.17;100.00;102496.94;2100994;28;20056;-75
2023/02/18 05:19:26;;;;;;;26.52;17.77;;;;;;;8.16;100.00;102505.63;2096467;28;20041;-75
2023/02/18 05:20:48;;;;;;;29.55;21.35;;;;;;;8.17;100.00;102498.66;2099281;28;20091;-75
2023/02/18 05:22:10;;;;;;;31.85;23.80;;;;;;;8.19;100.00;102499.66;2088049;28;20525;-75
2023/02/18 05:23:34;;;;;;;37.53;30.15;;;;;;;8.22;100.00;102505.97;2099409;28;20086;-75
2023/02/18 05:24:56;;;;;;;29.10;22.40;;;;;;;8.25;100.00;102503.50;2102155;28;20047;-75
2023/02/18 05:26:18;;;;;;;23.30;16.35;;;;;;;8.26;100.00;102496.53;2097578;28;20075;-76
2023/02/18 05:27:40;;;;;;;23.08;16.88;;;;;;;8.25;100.00;102499.97;2092858;28;20036;-73
2023/02/18 05:29:02;;;;;;;29.08;23.17;;;;;;;8.23;100.00;102499.88;2090895;28;20053;-74
2023/02/18 05:30:24;;;;;;;26.08;19.98;;;;;;;8.23;100.00;102501.59;2099331;28;20044;-75
2023/02/18 05:31:47;;;;;;;26.08;21.65;;;;;;;8.24;100.00;102506.03;2099981;28;20051;-75
2023/02/18 05:33:08;;;;;;;29.77;22.10;;;;;;;8.25;100.00;102502.59;2101631;28;20040;-75
2023/02/18 05:34:30;;;;;;;25.10;19.65;;;;;;;8.25;100.00;102500.88;2091813;28;20074;-75
2023/02/18 05:35:52;;;;;;;24.70;19.60;;;;;;;8.25;100.00;102499.97;2098584;28;20534;-74
2023/02/18 05:37:14;;;;;;;29.17;23.05;;;;;;;8.28;100.00;102508.00;2100921;28;20043;-74
2023/02/18 05:38:39;;;;;;;29.77;24.52;;;;;;;8.31;100.00;102506.50;2094190;28;20040;-75
2023/02/18 05:40:02;;;;;;;25.55;20.02;;;;;;;8.35;100.00;102508.44;2085782;28;20077;-74
2023/02/18 05:41:23;;;;;;;24.67;18.38;;;;;;;8.43;100.00;102506.22;2094991;28;20060;-74
2023/02/18 05:42:46;;;;;;;32.95;26.70;;;;;;;8.55;100.00;102511.22;2099481;28;20062;-75
2023/02/18 05:45:47;;;;;;;53.88;45.67;;;;;;;8.75;100.00;102511.41;2087651;28;20052;-74
2023/02/18 05:47:12;;;;;;;44.05;39.10;;;;;;;8.84;100.00;102518.88;2092317;28;20076;-74
2023/02/18 05:48:35;;;;;;;48.88;40.38;;;;;;;8.92;100.00;102519.28;2101529;28;20135;-75
2023/02/18 05:49:56;;;;;;;42.15;35.45;;;;;;;8.99;100.00;102517.00;2087942;28;20052;-75
2023/02/18 05:51:18;;;;;;;36.60;30.27;;;;;;;9.06;100.00;102521.75;2085300;28;20053;-75
2023/02/18 05:52:41;;;;;;;38.97;34.50;;;;;;;9.16;100.00;102517.88;2089812;28;20041;-75
2023/02/18 05:54:04;;;;;;;31.40;25.45;;;;;;;9.31;100.00;102515.09;2098541;28;20052;-75
2023/02/18 05:55:26;;;;;;;35.85;30.27;;;;;;;9.44;100.00;102518.41;2098474;28;20092;-75
2023/02/18 05:56:49;;;;;;;27.23;23.38;;;;;;;9.57;100.00;102515.53;2100863;28;20082;-75
2023/02/18 05:58:12;;;;;;;26.83;23.95;;;;;;;9.72;100.00;102519.69;2096016;28;20048;-75
2023/02/18 05:59:33;;;;;;;39.15;33.47;;;;;;;9.83;100.00;102508.84;2099602;28;20051;-75
2023/02/18 06:00:56;;;;;;;37.55;33.78;;;;;;;9.95;100.00;102513.75;2093305;28;20053;-74
2023/02/18 06:02:19;;;;;;;41.45;37.35;;;;;;;10.07;100.00;102503.75;2093230;28;20063;-75
2023/02/18 06:03:43;;;;;;;56.25;50.33;;;;;;;10.18;100.00;102506.91;2093994;28;20036;-75
2023/02/18 06:05:06;;;;;;;53.67;47.85;;;;;;;10.30;100.00;102513.69;2100774;28;20393;-75
2023/02/18 06:06:27;;;;;;;39.92;35.83;;;;;;;10.42;100.00;102508.03;2096210;28;20489;-75
2023/02/18 06:07:50;;;;;;;33.28;29.73;;;;;;;10.54;100.00;102507.66;2087856;28;20139;-75
2023/02/18 06:09:14;;;;;;;37.83;33.72;;;;;;;10.64;100.00;102504.56;2087743;28;20103;-75
2023/02/18 06:10:36;;;;;;;28.95;24.90;;;;;;;10.73;100.00;102505.88;2097595;28;20051;-75
2023/02/18 06:11:59;;;;;;;25.58;22.80;;;;;;;10.79;100.00;102495.56;2093463;28;20174;-75
2023/02/18 06:13:21;;;;;;;16.42;13.15;;;;;;;10.87;100.00;102501.19;2098536;28;20062;-75
2023/02/18 06:14:42;;;;;;;25.60;21.30;;;;;;;10.94;100.00;102500.63;2102008;28;20051;-75
2023/02/18 06:16:05;;;;;;;23.08;20.40;;;;;;;11.05;100.00;102501.06;2101538;28;20135;-74
2023/02/18 06:17:28;;;;;;;20.83;18.60;;;;;;;11.14;100.00;102499.69;2100459;28;20048;-75
2023/02/18 06:18:50;;;;;;;22.83;20.35;;;;;;;11.25;100.00;102502.78;2085449;28;20045;-75
2023/02/18 06:20:13;;;;;;;21.50;19.02;;;;;;;11.32;100.00;102498.63;2094159;28;20040;-75
2023/02/18 06:21:34;;;;;;;24.15;21.55;;;;;;;11.39;100.00;102498.94;2101441;28;20056;-75
2023/02/18 06:22:56;;;;;;;21.92;19.38;;;;;;;11.47;100.00;102502.81;2101979;28;20056;-75
2023/02/18 06:24:19;;;;;;;20.48;16.85;;;;;;;11.57;100.00;102496.13;2102995;28;20097;-75
2023/02/18 06:25:42;;;;;;;25.88;22.52;;;;;;;11.65;100.00;102494.69;2107356;28;20058;-74
2023/02/18 06:27:04;;;;;;;18.92;14.88;;;;;;;11.73;100.00;102490.59;2105600;28;20075;-75
2023/02/18 06:28:26;;;;;;;15.73;12.02;;;;;;;11.83;100.00;102497.16;2103088;28;20051;-75
2023/02/18 06:29:48;;;;;;;13.95;11.43;;;;;;;11.90;100.00;102497.47;2102146;28;20044;-75
2023/02/18 06:31:09;;;;;;;15.63;11.45;;;;;;;12.02;100.00;102504.06;2098774;28;20040;-74